Погода Рудаковна 2 недели

Ростовская область, Россия

21 мая-03 июня
  • 21мая
    Сегодня
    +9°
    +26°
    Облачно с прояснениями
    ВремяПогодаТемператураВлажностьДавлениеВетер, м/сВероятность осадков
    00:00Ясно и безоблачно+12°C69 %759 мм2.1 м/с2 %
    03:00Ясно и безоблачно+13°C65 %759 мм1.5 м/с2 %
    06:00Ясно и безоблачно+13°C71 %759 мм1.5 м/с2 %
    09:00Ясно и безоблачно+21°C46 %760 мм1.0 м/с2 %
    12:00Небольшая облачность+25°C29 %760 мм0.5 м/с2 %
    15:00Облачно с прояснениями+26°C27 %759 мм0.5 м/с2 %
    18:00Практически безоблачно+25°C29 %759 мм1.3 м/с2 %
    21:00Небольшая облачность+18°C43 %759 мм2.0 м/с2 %
  • 22мая
    Среда
    +10°
    +28°
    Ясно и безоблачно
    ВремяПогодаТемператураВлажностьДавлениеВетер, м/сВероятность осадков
    00:00Практически безоблачно+15°C50 %759 мм1.7 м/с2 %
    03:00Практически безоблачно+12°C52 %759 мм1.7 м/с2 %
    06:00Практически безоблачно+13°C56 %759 мм0.6 м/с2 %
    09:00Ясно и безоблачно+23°C33 %759 мм1.1 м/с2 %
    12:00Практически безоблачно+27°C24 %759 мм2.1 м/с2 %
    15:00Ясно и безоблачно+28°C24 %758 мм2.1 м/с1 %
    18:00Ясно и безоблачно+26°C27 %757 мм1.9 м/с2 %
    21:00Ясно и безоблачно+18°C48 %757 мм2.7 м/с2 %
  • 23мая
    Четверг
    +12°
    +29°
    Ясно и безоблачно
    ВремяПогодаТемператураВлажностьДавлениеВетер, м/сВероятность осадков
    00:00Ясно и безоблачно+15°C48 %757 мм1.6 м/с2 %
    03:00Ясно и безоблачно+11°C63 %757 мм2.0 м/с2 %
    06:00Ясно и безоблачно+13°C57 %757 мм1.7 м/с2 %
    09:00Ясно и безоблачно+23°C37 %757 мм1.2 м/с2 %
    12:00Ясно и безоблачно+28°C24 %757 мм2.7 м/с2 %
    15:00Ясно и безоблачно+28°C24 %756 мм1.9 м/с7 %
    18:00Практически безоблачно+24°C40 %757 мм6.7 м/с21 %
    21:00Ясно и безоблачно+19°C50 %758 мм4.5 м/с2 %
  • 24мая
    Пятница
    +8°
    +23°
    Ясно и безоблачно
    ВремяПогодаТемператураВлажностьДавлениеВетер, м/сВероятность осадков
    00:00Ясно и безоблачно+16°C63 %758 мм5.3 м/с2 %
    03:00Ясно и безоблачно+14°C67 %760 мм6.2 м/с2 %
    06:00Ясно и безоблачно+12°C48 %761 мм6.4 м/с2 %
    09:00Ясно и безоблачно+18°C36 %762 мм7.4 м/с2 %
    12:00Ясно и безоблачно+22°C31 %763 мм7.3 м/с2 %
    15:00Ясно и безоблачно+22°C24 %762 мм7.0 м/с2 %
    18:00Ясно и безоблачно+21°C20 %763 мм7.0 м/с2 %
    21:00Ясно и безоблачно+15°C26 %764 мм5.4 м/с2 %
  • 25мая
    Суббота
    +10°
    +22°
    Ясно и безоблачно
    ВремяПогодаТемператураВлажностьДавлениеВетер, м/сВероятность осадков
    00:00Ясно и безоблачно+12°C30 %765 мм5.8 м/с2 %
    03:00Ясно и безоблачно+9°C35 %766 мм5.3 м/с2 %
    06:00Ясно и безоблачно+9°C41 %766 мм4.6 м/с2 %
    09:00Ясно и безоблачно+16°C26 %767 мм7.1 м/с2 %
    12:00Ясно и безоблачно+20°C23 %766 мм7.1 м/с2 %
    15:00Ясно и безоблачно+22°C23 %765 мм6.5 м/с2 %
    18:00Ясно и безоблачно+21°C22 %764 мм6.1 м/с2 %
    21:00Облачно с прояснениями+16°C28 %764 мм4.1 м/с2 %
Мы используем cookies
Соглашаюсь